Time;durP1;ratioP1;P1;durP2;ratioP2;P2;SDS_P1;SDS_P2;PMS_P1;PMS_P2;Temp;Humidity;BMP_temperature;BMP_pressure;BME280_temperature;BME280_humidity;BME280_pressure;Samples;Min_cycle;Max_cycle;Signal;HPM_P1;HPM_P2
2021/01/14 06:02:40;;;;;;;7.30;6.80;;;4.60;99.90;;;;;;10253348;28;20251;-84
2021/01/14 06:07:42;;;;;;;7.90;7.30;;;4.60;99.90;;;;;;10244750;28;20228;-85
2021/01/14 06:13:11;;;;;;;8.57;7.87;;;4.60;99.90;;;;;;10243052;29;20272;-84
2021/01/14 06:18:14;;;;;;;8.00;7.50;;;4.70;99.90;;;;;;10240715;28;20267;-84
2021/01/14 06:23:18;;;;;;;8.67;8.00;;;4.70;99.90;;;;;;10264829;28;20293;-85
2021/01/14 06:28:22;;;;;;;8.17;7.67;;;4.60;99.90;;;;;;10254224;28;20247;-83
2021/01/14 06:33:26;;;;;;;8.13;7.63;;;4.60;99.90;;;;;;10259122;28;20207;-83
2021/01/14 06:38:43;;;;;;;8.07;7.47;;;4.60;99.90;;;;;;10278978;28;20224;-83
2021/01/14 06:43:46;;;;;;;8.10;7.30;;;4.60;99.90;;;;;;10257382;28;20208;-83
2021/01/14 06:49:11;;;;;;;8.70;8.10;;;4.60;99.90;;;;;;10239744;28;20584;-84
2021/01/14 06:54:17;;;;;;;9.40;8.70;;;4.60;99.90;;;;;;10272343;28;20204;-82
2021/01/14 06:59:18;;;;;;;8.93;8.23;;;4.60;99.90;;;;;;10282098;28;20640;-85
2021/01/14 07:04:36;;;;;;;9.37;8.67;;;4.60;99.90;;;;;;10335318;28;20206;-86
2021/01/14 07:09:47;;;;;;;9.33;8.53;;;4.60;99.90;;;;;;10308778;28;20235;-82
2021/01/14 07:14:51;;;;;;;9.67;8.97;;;4.60;99.90;;;;;;10280182;28;20204;-85
2021/01/14 07:19:54;;;;;;;9.53;8.73;;;4.70;99.90;;;;;;10280554;28;20243;-84
2021/01/14 07:24:59;;;;;;;11.87;9.73;;;4.60;99.90;;;;;;10287910;28;20207;-84
2021/01/14 07:30:01;;;;;;;10.37;9.37;;;4.70;99.90;;;;;;10320870;28;20259;-85
2021/01/14 07:35:04;;;;;;;9.00;8.40;;;4.70;99.90;;;;;;10319951;28;20207;-84
2021/01/14 07:40:08;;;;;;;9.53;8.73;;;4.70;99.90;;;;;;10320960;28;20219;-84
2021/01/14 07:45:15;;;;;;;10.60;9.80;;;4.70;99.90;;;;;;10334189;28;20227;-84
2021/01/14 07:50:23;;;;;;;9.77;9.13;;;4.70;99.90;;;;;;10318547;28;20277;-84
2021/01/14 07:55:27;;;;;;;10.10;9.30;;;4.70;99.90;;;;;;10317022;28;20726;-82
2021/01/14 08:00:30;;;;;;;9.67;8.97;;;4.80;99.90;;;;;;10268622;28;20579;-87
2021/01/14 08:05:56;;;;;;;9.50;8.67;;;4.80;99.90;;;;;;10236844;29;20211;-84
2021/01/14 08:11:09;;;;;;;8.63;8.03;;;4.70;99.90;;;;;;10237054;29;20607;-86
2021/01/14 08:16:30;;;;;;;9.50;8.70;;;4.70;99.90;;;;;;10237913;29;20295;-84
2021/01/14 08:21:34;;;;;;;8.47;7.77;;;4.80;99.90;;;;;;10219263;29;20228;-83
2021/01/14 08:26:53;;;;;;;8.17;7.37;;;4.80;99.90;;;;;;10257575;28;20198;-86
2021/01/14 08:31:55;;;;;;;7.90;7.20;;;4.80;99.90;;;;;;10257432;28;20239;-85
2021/01/14 08:36:59;;;;;;;7.93;7.23;;;4.80;99.90;;;;;;10239026;29;20263;-82
2021/01/14 08:42:11;;;;;;;8.03;7.23;;;4.90;99.90;;;;;;10247002;29;20677;-86
2021/01/14 08:47:13;;;;;;;6.97;6.37;;;4.90;99.90;;;;;;10246605;28;20208;-84
2021/01/14 08:52:17;;;;;;;9.30;7.20;;;4.90;99.90;;;;;;10246277;28;20220;-86
2021/01/14 08:57:19;;;;;;;7.80;7.10;;;4.80;99.90;;;;;;10255781;28;20201;-87
2021/01/14 09:02:22;;;;;;;10.23;7.97;;;4.80;99.90;;;;;;10242871;29;20231;-84
2021/01/14 09:07:25;;;;;;;8.53;7.70;;;4.80;99.90;;;;;;10243041;28;20227;-83
2021/01/14 09:12:27;;;;;;;9.67;8.80;;;4.90;99.90;;;;;;10243932;29;20216;-83
2021/01/14 09:17:30;;;;;;;7.73;7.00;;;4.90;99.90;;;;;;10243752;28;20224;-82
2021/01/14 09:22:33;;;;;;;8.00;7.20;;;4.90;99.90;;;;;;10243726;29;20635;-83
2021/01/14 09:27:35;;;;;;;8.30;7.60;;;4.90;99.90;;;;;;10243656;28;20720;-83
2021/01/14 09:32:37;;;;;;;7.93;7.23;;;5.00;99.90;;;;;;10244216;29;20669;-83
2021/01/14 09:37:42;;;;;;;9.47;7.37;;;5.00;99.90;;;;;;10242957;28;20351;-84
2021/01/14 09:42:45;;;;;;;8.87;7.07;;;5.00;99.90;;;;;;10243624;29;20207;-87
2021/01/14 09:47:49;;;;;;;7.47;6.70;;;5.00;99.90;;;;;;10248884;28;20228;-83
2021/01/14 09:52:53;;;;;;;7.73;6.80;;;5.10;99.90;;;;;;10241002;29;20259;-83
2021/01/14 09:57:56;;;;;;;7.57;6.67;;;5.10;99.90;;;;;;10242307;28;20643;-85
2021/01/14 10:03:08;;;;;;;7.30;6.50;;;5.20;99.90;;;;;;10257203;28;20292;-83
2021/01/14 10:08:19;;;;;;;6.63;5.90;;;5.20;99.90;;;;;;10241496;28;20233;-82
2021/01/14 10:13:21;;;;;;;8.30;6.23;;;5.20;99.90;;;;;;10266874;28;20691;-85
2021/01/14 10:18:24;;;;;;;6.60;5.93;;;5.20;99.90;;;;;;10297480;28;20356;-85
2021/01/14 10:23:27;;;;;;;6.93;6.33;;;5.20;99.90;;;;;;10264482;28;20203;-85
2021/01/14 10:28:29;;;;;;;7.27;6.57;;;5.20;99.90;;;;;;10297105;28;20270;-84
2021/01/14 10:33:33;;;;;;;5.80;5.30;;;5.20;99.90;;;;;;10281636;28;20231;-84
2021/01/14 10:38:50;;;;;;;8.70;6.23;;;5.30;99.90;;;;;;10280344;28;20569;-86
2021/01/14 10:43:52;;;;;;;7.10;6.10;;;5.30;99.90;;;;;;10280403;28;20679;-85
2021/01/14 10:48:54;;;;;;;7.43;6.70;;;5.20;99.90;;;;;;10283336;28;20231;-86
2021/01/14 10:53:57;;;;;;;6.80;6.30;;;5.20;99.90;;;;;;10249343;28;20208;-85
2021/01/14 10:59:01;;;;;;;7.67;6.40;;;5.20;99.90;;;;;;10286845;23;20222;-80
2021/01/14 11:04:07;;;;;;;7.37;6.67;;;5.20;99.90;;;;;;10327030;28;20215;-79
2021/01/14 11:09:11;;;;;;;7.67;6.00;;;5.30;99.90;;;;;;10316790;28;20227;-79
2021/01/14 11:14:15;;;;;;;7.40;6.63;;;5.20;99.90;;;;;;10342185;28;20203;-80
2021/01/14 11:19:17;;;;;;;7.80;6.97;;;5.20;99.90;;;;;;10363551;28;20222;-80
2021/01/14 11:24:19;;;;;;;7.40;6.70;;;5.20;99.90;;;;;;10323584;28;20231;-80
2021/01/14 11:29:21;;;;;;;8.17;7.37;;;5.20;99.90;;;;;;10365840;28;20229;-80
2021/01/14 11:34:23;;;;;;;7.43;6.83;;;5.20;99.90;;;;;;10364166;28;20233;-79
2021/01/14 11:39:25;;;;;;;8.23;7.50;;;5.30;99.90;;;;;;10361532;28;20215;-79
2021/01/14 11:44:28;;;;;;;7.60;6.90;;;5.30;99.90;;;;;;10337152;28;20236;-80
2021/01/14 11:49:31;;;;;;;8.37;7.57;;;5.40;99.90;;;;;;10359385;28;20703;-80
2021/01/14 11:54:33;;;;;;;7.77;6.97;;;5.40;99.90;;;;;;10350977;28;20210;-80
2021/01/14 11:59:35;;;;;;;8.30;6.50;;;5.50;99.90;;;;;;10339755;28;20661;-80
2021/01/14 12:04:37;;;;;;;7.60;7.00;;;5.50;99.90;;;;;;10357749;28;20226;-80
2021/01/14 12:09:40;;;;;;;7.03;6.40;;;5.60;99.90;;;;;;10339920;28;20225;-80
2021/01/14 12:14:42;;;;;;;6.50;5.90;;;5.60;99.90;;;;;;10357217;28;20312;-80
2021/01/14 12:19:43;;;;;;;6.50;5.90;;;5.70;99.90;;;;;;10357882;28;20218;-80
2021/01/14 12:24:46;;;;;;;8.33;6.70;;;5.70;99.90;;;;;;10373060;28;20205;-80
2021/01/14 12:29:47;;;;;;;7.30;6.40;;;5.70;99.90;;;;;;10371373;28;20226;-80
2021/01/14 12:34:49;;;;;;;6.70;6.07;;;5.70;99.90;;;;;;10328299;28;20332;-80
2021/01/14 12:39:52;;;;;;;7.97;6.40;;;5.70;99.90;;;;;;10339117;28;20250;-79
2021/01/14 12:44:53;;;;;;;8.80;6.30;;;5.70;99.90;;;;;;10348688;28;20280;-79
2021/01/14 12:49:55;;;;;;;7.10;6.40;;;5.70;99.90;;;;;;10365878;28;20709;-80
2021/01/14 12:54:57;;;;;;;8.83;6.07;;;5.70;99.90;;;;;;10356937;28;20194;-80
2021/01/14 12:59:59;;;;;;;7.27;6.63;;;5.70;99.90;;;;;;10313833;28;20321;-80
2021/01/14 13:05:01;;;;;;;5.77;5.33;;;5.80;99.90;;;;;;10349667;28;20198;-80
2021/01/14 13:10:04;;;;;;;8.17;6.40;;;5.70;99.90;;;;;;10333375;28;20745;-80
2021/01/14 13:15:07;;;;;;;7.83;7.03;;;5.70;99.90;;;;;;10355952;28;20226;-80
2021/01/14 13:20:09;;;;;;;6.23;5.73;;;5.70;99.90;;;;;;10355616;28;20230;-80
2021/01/14 13:25:12;;;;;;;8.83;6.63;;;5.70;99.90;;;;;;10375292;28;20211;-80
2021/01/14 13:30:16;;;;;;;6.47;5.80;;;5.80;99.90;;;;;;10346706;28;20231;-79
2021/01/14 13:35:17;;;;;;;5.57;5.07;;;5.70;99.90;;;;;;10359586;28;20203;-79
2021/01/14 13:40:20;;;;;;;6.23;5.67;;;5.70;99.90;;;;;;10377807;28;20215;-79
2021/01/14 13:45:22;;;;;;;7.23;5.37;;;5.60;99.90;;;;;;10328495;28;20222;-79
2021/01/14 13:50:23;;;;;;;6.50;5.80;;;5.50;99.80;;;;;;10345119;28;20230;-80
2021/01/14 13:55:26;;;;;;;9.33;5.90;;;5.40;99.90;;;;;;10368953;28;20207;-79
2021/01/14 14:00:27;;;;;;;7.27;4.80;;;5.40;99.90;;;;;;10332095;28;20241;-80
2021/01/14 14:05:29;;;;;;;4.97;4.43;;;5.40;99.90;;;;;;10361057;28;20198;-79
2021/01/14 14:10:32;;;;;;;4.80;4.40;;;5.30;99.90;;;;;;10357305;28;20241;-79
2021/01/14 14:15:33;;;;;;;7.03;5.47;;;5.40;99.90;;;;;;10346597;28;20547;-79
2021/01/14 14:20:35;;;;;;;6.03;5.43;;;5.40;99.90;;;;;;10357400;28;20313;-79
2021/01/14 14:25:37;;;;;;;9.77;6.20;;;5.40;99.90;;;;;;10338070;28;20226;-80
2021/01/14 14:30:39;;;;;;;6.63;5.97;;;5.30;99.90;;;;;;10370558;28;20329;-79
2021/01/14 14:35:41;;;;;;;6.20;5.13;;;5.30;99.90;;;;;;10346712;28;20587;-80
2021/01/14 14:40:44;;;;;;;6.10;5.20;;;5.20;99.90;;;;;;10359168;28;20598;-80
2021/01/14 14:45:47;;;;;;;5.90;5.40;;;5.20;99.90;;;;;;10345599;28;20209;-79
2021/01/14 14:50:49;;;;;;;5.10;4.67;;;5.20;99.90;;;;;;10330517;28;20225;-80
2021/01/14 14:55:51;;;;;;;4.07;3.77;;;5.30;99.90;;;;;;10351871;28;20227;-79
2021/01/14 15:00:54;;;;;;;4.63;4.23;;;5.20;99.70;;;;;;10367529;28;20218;-79
2021/01/14 15:05:56;;;;;;;5.37;4.83;;;5.20;99.50;;;;;;10368994;28;20293;-80
2021/01/14 15:10:59;;;;;;;5.03;4.50;;;5.10;99.70;;;;;;10317192;28;20285;-79
2021/01/14 15:16:00;;;;;;;4.50;4.10;;;5.00;99.80;;;;;;10351432;28;20234;-80
2021/01/14 15:21:04;;;;;;;5.80;5.10;;;5.00;99.80;;;;;;10344090;28;20232;-80
2021/01/14 15:26:06;;;;;;;4.87;4.07;;;4.90;99.70;;;;;;10329394;28;20242;-79
2021/01/14 15:31:08;;;;;;;5.40;5.00;;;4.70;99.90;;;;;;10354951;28;20469;-81
2021/01/14 15:36:15;;;;;;;5.07;4.67;;;4.60;99.90;;;;;;10348068;28;20211;-80
2021/01/14 15:41:18;;;;;;;5.20;4.80;;;4.60;99.90;;;;;;10347447;28;20667;-81
2021/01/14 15:46:21;;;;;;;4.27;3.97;;;4.60;99.90;;;;;;10360265;28;20635;-80
2021/01/14 15:51:22;;;;;;;3.90;3.60;;;4.60;99.90;;;;;;10335322;28;20242;-80
2021/01/14 15:56:29;;;;;;;3.87;3.57;;;4.70;99.90;;;;;;10359917;28;20294;-80
2021/01/14 16:01:31;;;;;;;3.40;3.10;;;4.70;99.90;;;;;;10318671;28;20298;-80
2021/01/14 16:06:33;;;;;;;4.30;3.90;;;4.60;99.90;;;;;;10341147;28;20244;-80
2021/01/14 16:11:36;;;;;;;4.27;3.87;;;4.60;99.70;;;;;;10345055;28;20222;-81
2021/01/14 16:16:38;;;;;;;4.33;3.53;;;4.50;99.90;;;;;;10328958;28;20222;-81
2021/01/14 16:21:39;;;;;;;5.13;4.50;;;4.40;99.90;;;;;;10320648;28;20219;-81
2021/01/14 16:26:43;;;;;;;4.37;3.97;;;4.40;99.90;;;;;;10352034;28;20215;-80
2021/01/14 16:31:49;;;;;;;4.63;4.30;;;4.40;99.90;;;;;;10343319;28;20617;-80
2021/01/14 16:36:55;;;;;;;5.53;5.03;;;4.30;99.90;;;;;;10338602;28;20639;-79
2021/01/14 16:42:00;;;;;;;6.33;5.73;;;4.30;99.90;;;;;;10324135;28;20226;-80
2021/01/14 16:47:03;;;;;;;8.93;8.03;;;4.30;99.90;;;;;;10323034;28;20198;-80
2021/01/14 16:52:07;;;;;;;5.60;5.10;;;4.30;99.90;;;;;;10320408;28;20302;-79
2021/01/14 16:57:10;;;;;;;5.13;4.73;;;4.30;99.90;;;;;;10338216;28;20612;-79
2021/01/14 18:45:02;;;;;;;10.00;9.00;;;4.00;99.90;;;;;;10297465;28;20203;-86
2021/01/14 18:50:29;;;;;;;8.97;8.17;;;4.00;99.90;;;;;;10333124;28;20301;-86
2021/01/14 20:35:35;;;;;;;10.37;9.23;;;3.90;99.90;;;;;;10018531;29;20202;-86
2021/01/14 20:40:36;;;;;;;14.03;10.30;;;3.90;99.90;;;;;;10109980;29;20214;-86
2021/01/14 20:45:39;;;;;;;11.10;9.90;;;3.90;99.90;;;;;;10214882;28;20573;-86
2021/01/14 20:50:41;;;;;;;10.40;9.30;;;3.90;99.90;;;;;;10233428;28;20228;-86
2021/01/14 20:55:43;;;;;;;10.47;9.47;;;3.90;99.90;;;;;;10252177;28;20687;-86
2021/01/14 21:00:48;;;;;;;10.33;9.37;;;3.90;99.90;;;;;;10272129;28;20222;-87
2021/01/14 21:05:51;;;;;;;11.00;9.90;;;3.90;99.90;;;;;;10278921;28;20307;-85
2021/01/14 21:10:56;;;;;;;8.87;8.07;;;3.80;99.90;;;;;;10277533;28;20236;-86
2021/01/14 21:16:08;;;;;;;10.20;9.20;;;3.80;99.90;;;;;;10260864;28;20219;-85
2021/01/14 21:21:11;;;;;;;11.60;10.43;;;3.80;99.90;;;;;;10260607;28;20286;-85
2021/01/14 21:26:13;;;;;;;10.97;9.90;;;3.80;99.10;;;;;;10273692;28;20242;-87
2021/01/14 21:31:15;;;;;;;13.33;11.87;;;3.70;99.50;;;;;;10287418;28;20719;-86
2021/01/14 21:36:24;;;;;;;12.77;11.57;;;3.60;99.30;;;;;;10290248;28;20207;-86
2021/01/14 21:41:27;;;;;;;13.60;11.70;;;3.60;99.90;;;;;;10289896;28;20722;-84
2021/01/14 21:46:30;;;;;;;12.70;11.47;;;3.60;99.90;;;;;;10288944;28;20200;-84
2021/01/14 21:51:33;;;;;;;13.30;12.10;;;3.70;99.90;;;;;;10271828;28;20266;-86
2021/01/14 21:56:36;;;;;;;15.00;13.50;;;3.70;99.30;;;;;;10272071;28;20207;-85
2021/01/14 22:01:41;;;;;;;14.30;12.93;;;3.60;99.10;;;;;;10272511;28;20719;-86
2021/01/14 22:06:47;;;;;;;12.83;11.63;;;3.50;99.30;;;;;;10290348;28;20295;-84
2021/01/14 22:11:49;;;;;;;14.47;12.97;;;3.50;99.80;;;;;;10284159;28;20239;-87
2021/01/14 22:16:50;;;;;;;12.73;11.63;;;3.60;99.90;;;;;;10279803;28;20204;-86
2021/01/14 22:21:54;;;;;;;12.57;11.30;;;3.60;99.90;;;;;;10295249;28;20318;-85
2021/01/14 22:26:57;;;;;;;12.80;11.50;;;3.60;99.60;;;;;;10310120;28;20203;-85
2021/01/14 22:31:59;;;;;;;12.97;11.67;;;3.60;99.40;;;;;;10324898;28;20738;-85
2021/01/14 22:37:02;;;;;;;13.50;12.20;;;3.60;98.60;;;;;;10296482;28;20280;-86
2021/01/14 22:42:04;;;;;;;12.13;10.80;;;3.60;99.20;;;;;;10310859;28;20224;-85
2021/01/14 22:47:06;;;;;;;12.80;11.57;;;3.60;99.30;;;;;;10311529;28;20274;-86
2021/01/14 22:52:08;;;;;;;12.37;11.17;;;3.60;99.30;;;;;;10328675;28;20230;-86
2021/01/14 22:57:10;;;;;;;12.27;11.17;;;3.60;99.60;;;;;;10307539;28;20200;-86
2021/01/14 23:02:12;;;;;;;11.30;10.20;;;3.70;99.40;;;;;;10299162;28;20267;-86
2021/01/14 23:07:14;;;;;;;11.50;10.50;;;3.70;99.50;;;;;;10335576;28;20250;-86
2021/01/14 23:12:16;;;;;;;11.80;10.70;;;3.70;98.60;;;;;;10319049;28;20223;-86
2021/01/14 23:17:19;;;;;;;11.90;10.70;;;3.70;99.70;;;;;;10306267;28;20231;-87
2021/01/14 23:22:22;;;;;;;11.80;10.57;;;3.70;99.60;;;;;;10311305;28;20655;-86
2021/01/14 23:27:23;;;;;;;10.70;9.70;;;3.70;99.90;;;;;;10319942;28;20203;-86
2021/01/14 23:32:25;;;;;;;10.80;9.80;;;3.80;98.50;;;;;;10317966;28;20310;-86
2021/01/14 23:37:29;;;;;;;11.07;9.50;;;3.70;98.60;;;;;;10323645;28;20563;-86
2021/01/14 23:42:31;;;;;;;10.57;9.57;;;3.70;99.00;;;;;;10331629;28;20207;-86
2021/01/14 23:47:36;;;;;;;10.37;9.37;;;3.70;99.00;;;;;;10318658;28;20686;-86
2021/01/14 23:52:39;;;;;;;12.13;10.60;;;3.60;99.30;;;;;;10316268;28;20227;-86
2021/01/14 23:57:41;;;;;;;10.07;9.20;;;3.70;99.30;;;;;;10304484;28;20234;-86
